Time;durP1;ratioP1;P1;durP2;ratioP2;P2;SDS_P1;SDS_P2;PMS_P1;PMS_P2;Temp;Humidity;BMP_temperature;BMP_pressure;BME280_temperature;BME280_humidity;BME280_pressure;Samples;Min_cycle;Max_cycle;Signal;HPM_P1;HPM_P2
2023/10/28 00:02:23;;;;;;;11.93;6.05;;;;;;;;;;12983569;22;20370;-87
2023/10/28 00:07:26;;;;;;;10.07;6.10;;;;;;;;;;12979790;22;20420;-86
2023/10/28 00:12:29;;;;;;;10.37;5.83;;;;;;;;;;12981208;22;20428;-86
2023/10/28 00:17:32;;;;;;;9.45;5.70;;;;;;;;;;13002533;22;20375;-85
2023/10/28 00:22:34;;;;;;;9.07;5.87;;;;;;;;;;13005950;22;20358;-86
2023/10/28 00:27:38;;;;;;;10.60;6.07;;;;;;;;;;12981969;22;20370;-85
2023/10/28 00:32:40;;;;;;;12.33;7.70;;;;;;;;;;12982922;22;20424;-86
2023/10/28 00:37:44;;;;;;;14.00;8.40;;;;;;;;;;12981077;22;20374;-86
2023/10/28 00:42:47;;;;;;;12.67;8.43;;;;;;;;;;12981419;22;20410;-86
2023/10/28 00:47:52;;;;;;;14.80;9.33;;;;;;;;;;12982994;22;20359;-86
2023/10/28 00:52:56;;;;;;;15.23;11.20;;;;;;;;;;12983050;22;20370;-86
2023/10/28 00:58:00;;;;;;;17.45;11.80;;;;;;;;;;12983698;22;20382;-86
2023/10/28 01:03:03;;;;;;;16.23;10.03;;;;;;;;;;13004152;22;20935;-86
2023/10/28 01:08:06;;;;;;;14.87;10.37;;;;;;;;;;12984317;22;20375;-86
2023/10/28 01:13:10;;;;;;;18.30;11.40;;;;;;;;;;12983090;22;20366;-86
2023/10/28 01:18:13;;;;;;;18.63;12.38;;;;;;;;;;13004045;22;20378;-86
2023/10/28 01:23:18;;;;;;;17.15;11.60;;;;;;;;;;12982130;22;20385;-86
2023/10/28 01:28:20;;;;;;;16.75;11.27;;;;;;;;;;12983016;22;20396;-86
2023/10/28 01:33:22;;;;;;;18.30;11.32;;;;;;;;;;12982802;22;20363;-85
2023/10/28 01:38:26;;;;;;;18.23;11.00;;;;;;;;;;13003496;22;20378;-85
2023/10/28 01:43:29;;;;;;;19.25;11.32;;;;;;;;;;12983184;22;20392;-86
2023/10/28 01:48:31;;;;;;;18.45;11.38;;;;;;;;;;12981416;22;20359;-86
2023/10/28 01:53:35;;;;;;;18.23;11.00;;;;;;;;;;13003387;22;20366;-85
2023/10/28 01:58:37;;;;;;;16.60;10.52;;;;;;;;;;12981688;22;20428;-86
2023/10/28 02:03:40;;;;;;;16.58;11.07;;;;;;;;;;12983611;22;20367;-86
2023/10/28 02:08:44;;;;;;;16.70;11.33;;;;;;;;;;12983317;22;20374;-86
2023/10/28 02:13:46;;;;;;;15.60;10.75;;;;;;;;;;12982286;22;20826;-86
2023/10/28 02:18:48;;;;;;;20.20;11.43;;;;;;;;;;12982757;22;20378;-86
2023/10/28 02:23:52;;;;;;;16.08;11.13;;;;;;;;;;12981680;22;20363;-86
2023/10/28 02:28:55;;;;;;;15.63;11.65;;;;;;;;;;12981973;22;20761;-84
2023/10/28 02:33:57;;;;;;;16.27;11.50;;;;;;;;;;13001204;22;20359;-85
2023/10/28 02:39:01;;;;;;;17.75;11.98;;;;;;;;;;12981837;22;20386;-85
2023/10/28 02:44:04;;;;;;;19.65;11.88;;;;;;;;;;12981341;22;20367;-86
2023/10/28 02:49:07;;;;;;;20.37;12.73;;;;;;;;;;12981491;22;20773;-86
2023/10/28 02:54:10;;;;;;;23.15;13.75;;;;;;;;;;12981882;22;20402;-86
2023/10/28 02:59:13;;;;;;;21.63;13.82;;;;;;;;;;12981880;22;20383;-86
2023/10/28 03:04:16;;;;;;;26.73;13.88;;;;;;;;;;12981682;22;20687;-84
2023/10/28 03:09:20;;;;;;;22.35;14.35;;;;;;;;;;12983334;22;20363;-86
2023/10/28 03:14:22;;;;;;;22.13;14.30;;;;;;;;;;12984252;22;20359;-86
2023/10/28 03:19:24;;;;;;;22.20;13.75;;;;;;;;;;12985423;22;20440;-86
2023/10/28 03:24:28;;;;;;;19.13;13.27;;;;;;;;;;12984873;22;20835;-86
2023/10/28 03:29:31;;;;;;;22.90;13.88;;;;;;;;;;12985831;22;20362;-85
2023/10/28 03:34:33;;;;;;;20.33;13.20;;;;;;;;;;12984789;22;20908;-84
2023/10/28 03:39:38;;;;;;;19.20;13.00;;;;;;;;;;12984360;22;20420;-86
2023/10/28 03:44:40;;;;;;;20.38;13.38;;;;;;;;;;12985368;22;20367;-86
2023/10/28 03:49:42;;;;;;;18.50;12.50;;;;;;;;;;12984448;22;20378;-85
2023/10/28 03:54:46;;;;;;;18.50;12.77;;;;;;;;;;12984168;22;20420;-85
2023/10/28 03:59:49;;;;;;;17.67;12.27;;;;;;;;;;12984822;22;20444;-85
2023/10/28 04:04:52;;;;;;;18.37;12.93;;;;;;;;;;12984143;22;20367;-85
2023/10/28 04:09:55;;;;;;;19.37;11.70;;;;;;;;;;12984929;22;20880;-85
2023/10/28 04:14:58;;;;;;;16.70;11.05;;;;;;;;;;12984457;22;21088;-86
2023/10/28 04:20:00;;;;;;;17.45;11.80;;;;;;;;;;12984343;22;20388;-85
2023/10/28 04:25:05;;;;;;;16.70;11.25;;;;;;;;;;12984278;22;20367;-86
2023/10/28 04:30:10;;;;;;;16.90;11.73;;;;;;;;;;12760662;23;20414;-86
2023/10/28 04:35:13;;;;;;;16.98;11.73;;;;;;;;;;12684458;23;20375;-86
2023/10/28 04:40:16;;;;;;;16.88;11.00;;;;;;;;;;12663263;23;20402;-86
2023/10/28 04:45:21;;;;;;;17.38;10.95;;;;;;;;;;12683515;23;20368;-86
2023/10/28 04:50:23;;;;;;;15.88;11.18;;;;;;;;;;12684253;23;20355;-85
2023/10/28 04:55:27;;;;;;;16.30;11.23;;;;;;;;;;12664145;23;20394;-86
2023/10/28 05:00:29;;;;;;;16.90;10.90;;;;;;;;;;12663452;23;20690;-86
2023/10/28 05:05:31;;;;;;;15.23;10.55;;;;;;;;;;12662726;23;20437;-85
2023/10/28 05:10:35;;;;;;;14.47;10.23;;;;;;;;;;12662457;23;20444;-85
2023/10/28 05:15:38;;;;;;;15.95;10.50;;;;;;;;;;12662167;23;20758;-85
2023/10/28 05:20:40;;;;;;;15.17;10.20;;;;;;;;;;12662306;23;20453;-86
2023/10/28 05:25:44;;;;;;;15.98;10.73;;;;;;;;;;12663533;23;20376;-86
2023/10/28 05:30:46;;;;;;;17.57;11.33;;;;;;;;;;12925527;22;20374;-86
2023/10/28 05:35:51;;;;;;;19.33;11.73;;;;;;;;;;12982071;22;20417;-86
2023/10/28 05:40:55;;;;;;;19.55;12.00;;;;;;;;;;12981124;22;20381;-86
2023/10/28 05:45:58;;;;;;;18.73;11.68;;;;;;;;;;13003895;22;20404;-86
2023/10/28 05:51:02;;;;;;;17.25;11.30;;;;;;;;;;13001379;22;20354;-86
2023/10/28 05:56:07;;;;;;;17.45;10.73;;;;;;;;;;12977179;22;20386;-86
2023/10/28 06:01:09;;;;;;;15.57;10.55;;;;;;;;;;12982079;22;20690;-86
2023/10/28 06:06:11;;;;;;;16.63;11.10;;;;;;;;;;12975839;22;20362;-85
2023/10/28 06:11:15;;;;;;;14.30;10.23;;;;;;;;;;12975585;22;20416;-86
2023/10/28 06:16:18;;;;;;;18.27;10.38;;;;;;;;;;12974850;22;20436;-86
2023/10/28 06:21:21;;;;;;;20.08;10.63;;;;;;;;;;12979539;22;20456;-86
2023/10/28 06:26:25;;;;;;;16.02;10.02;;;;;;;;;;12979531;22;20370;-86
2023/10/28 06:31:27;;;;;;;17.90;10.20;;;;;;;;;;12978513;22;20404;-86
2023/10/28 06:36:29;;;;;;;13.63;9.52;;;;;;;;;;12980304;22;20378;-86
2023/10/28 06:41:34;;;;;;;13.20;9.07;;;;;;;;;;12983484;22;20420;-85
2023/10/28 06:46:36;;;;;;;14.00;9.15;;;;;;;;;;12984498;22;20367;-85
2023/10/28 06:51:39;;;;;;;11.98;8.30;;;;;;;;;;13003154;22;20367;-86
2023/10/28 06:56:42;;;;;;;17.85;9.38;;;;;;;;;;12982061;22;20378;-85
2023/10/28 07:01:45;;;;;;;13.15;8.90;;;;;;;;;;12972548;22;20487;-86
2023/10/28 07:06:47;;;;;;;16.65;9.98;;;;;;;;;;12967404;22;20371;-86
2023/10/28 07:11:53;;;;;;;15.82;10.13;;;;;;;;;;12963683;22;20370;-86
2023/10/28 07:16:55;;;;;;;17.60;10.70;;;;;;;;;;12974286;22;21137;-86
2023/10/28 07:21:57;;;;;;;13.97;8.80;;;;;;;;;;12964245;22;20834;-87
2023/10/28 07:27:01;;;;;;;10.30;7.63;;;;;;;;;;12972986;22;20374;-86
2023/10/28 07:32:05;;;;;;;15.05;8.88;;;;;;;;;;12978063;22;20397;-86
2023/10/28 07:37:07;;;;;;;12.32;8.40;;;;;;;;;;12978331;22;20383;-85
2023/10/28 07:42:11;;;;;;;12.45;8.05;;;;;;;;;;12961367;22;20378;-85
2023/10/28 07:47:13;;;;;;;12.70;7.20;;;;;;;;;;12962643;22;21054;-85
2023/10/28 07:52:16;;;;;;;9.50;6.22;;;;;;;;;;12960562;22;20401;-87
2023/10/28 07:57:22;;;;;;;8.60;6.43;;;;;;;;;;12954028;22;21118;-87
2023/10/28 08:02:24;;;;;;;11.32;6.30;;;;;;;;;;12954568;22;20432;-85
2023/10/28 08:07:27;;;;;;;9.48;5.72;;;;;;;;;;12963983;22;20383;-85
2023/10/28 08:12:30;;;;;;;9.10;5.83;;;;;;;;;;12950737;22;20920;-86
2023/10/28 08:17:33;;;;;;;9.52;5.30;;;;;;;;;;12949411;22;20382;-86
2023/10/28 08:22:36;;;;;;;7.32;4.47;;;;;;;;;;12950755;22;20702;-85
2023/10/28 08:27:40;;;;;;;9.82;5.80;;;;;;;;;;12951433;22;20387;-86
2023/10/28 08:32:42;;;;;;;9.30;5.60;;;;;;;;;;12968675;22;20862;-86
2023/10/28 08:37:44;;;;;;;8.00;5.38;;;;;;;;;;12968799;22;20378;-85
2023/10/28 08:42:49;;;;;;;9.48;5.68;;;;;;;;;;12946470;22;20436;-85
2023/10/28 08:47:51;;;;;;;8.27;5.40;;;;;;;;;;12947767;22;20374;-85
2023/10/28 08:52:57;;;;;;;10.20;6.03;;;;;;;;;;12946793;22;20371;-85
2023/10/28 08:58:03;;;;;;;10.38;5.78;;;;;;;;;;12963941;22;20390;-88
2023/10/28 09:03:06;;;;;;;8.40;5.25;;;;;;;;;;12953480;22;20390;-88
2023/10/28 09:08:09;;;;;;;12.63;5.67;;;;;;;;;;12972789;22;20426;-88
2023/10/28 09:13:13;;;;;;;8.48;5.43;;;;;;;;;;12959381;22;20758;-88
2023/10/28 09:18:16;;;;;;;8.55;5.20;;;;;;;;;;12990421;22;20387;-87
2023/10/28 09:23:18;;;;;;;7.60;4.80;;;;;;;;;;12953296;22;20487;-88
2023/10/28 09:28:22;;;;;;;6.13;3.65;;;;;;;;;;12953298;22;20439;-79
2023/10/28 09:33:24;;;;;;;5.85;3.55;;;;;;;;;;12804035;22;20453;-86
2023/10/28 09:38:27;;;;;;;7.95;3.65;;;;;;;;;;12767052;23;20413;-87
2023/10/28 09:43:32;;;;;;;5.72;3.45;;;;;;;;;;12766018;22;20854;-87
2023/10/28 09:48:39;;;;;;;6.57;3.45;;;;;;;;;;12762792;22;20373;-87
2023/10/28 09:53:44;;;;;;;6.05;3.55;;;;;;;;;;12761531;22;20379;-86
2023/10/28 09:58:55;;;;;;;9.10;3.30;;;;;;;;;;12775497;22;20449;-87
2023/10/28 10:04:06;;;;;;;5.53;2.77;;;;;;;;;;12781745;22;20441;-87
2023/10/28 10:09:12;;;;;;;9.30;2.85;;;;;;;;;;12791164;22;20372;-87
2023/10/28 10:14:17;;;;;;;5.93;2.50;;;;;;;;;;12782160;22;20460;-87
2023/10/28 10:19:24;;;;;;;6.38;2.45;;;;;;;;;;12784450;22;20417;-88
2023/10/28 10:24:26;;;;;;;5.82;2.70;;;;;;;;;;12784116;22;20433;-88
2023/10/28 10:29:41;;;;;;;4.85;2.20;;;;;;;;;;12786414;22;20383;-87
2023/10/28 10:34:45;;;;;;;3.13;1.90;;;;;;;;;;12786378;22;20828;-87
2023/10/28 10:39:47;;;;;;;8.45;2.78;;;;;;;;;;12804489;22;20383;-88
2023/10/28 10:44:51;;;;;;;4.30;2.30;;;;;;;;;;12784969;22;20406;-87
2023/10/28 10:49:54;;;;;;;8.20;2.70;;;;;;;;;;12782799;22;20376;-88
2023/10/28 10:55:02;;;;;;;5.83;2.20;;;;;;;;;;12784798;22;20491;-88
2023/10/28 11:00:13;;;;;;;5.78;2.50;;;;;;;;;;12786935;22;20408;-80
2023/10/28 11:05:17;;;;;;;7.13;2.70;;;;;;;;;;12783952;22;20380;-88
2023/10/28 11:10:20;;;;;;;5.32;2.70;;;;;;;;;;12783489;22;20376;-88
2023/10/28 11:15:23;;;;;;;8.80;3.30;;;;;;;;;;12784783;22;20410;-88
2023/10/28 11:20:26;;;;;;;6.35;2.15;;;;;;;;;;12780534;22;20396;-88
2023/10/28 11:25:32;;;;;;;4.88;2.55;;;;;;;;;;12776275;22;20392;-87
2023/10/28 11:30:37;;;;;;;6.47;2.40;;;;;;;;;;12783333;22;20866;-87
2023/10/28 11:35:40;;;;;;;5.88;2.20;;;;;;;;;;12777826;23;20379;-87
2023/10/28 11:40:42;;;;;;;6.10;2.50;;;;;;;;;;12779278;23;21264;-88
2023/10/28 11:45:46;;;;;;;5.22;1.95;;;;;;;;;;12778078;23;20368;-87
2023/10/28 11:50:49;;;;;;;5.20;1.73;;;;;;;;;;12778691;23;20873;-87
2023/10/28 11:55:51;;;;;;;7.80;2.08;;;;;;;;;;12774426;23;20433;-89
2023/10/28 12:00:56;;;;;;;7.55;2.53;;;;;;;;;;12779051;23;20946;-87
2023/10/28 12:05:58;;;;;;;7.03;2.13;;;;;;;;;;12779066;23;20372;-86
2023/10/28 12:11:01;;;;;;;6.25;2.45;;;;;;;;;;12779246;23;20410;-88
2023/10/28 12:16:06;;;;;;;3.95;2.13;;;;;;;;;;12779524;23;20388;-88
2023/10/28 12:21:09;;;;;;;3.80;1.85;;;;;;;;;;12781539;23;20422;-87
2023/10/28 12:26:11;;;;;;;6.90;2.65;;;;;;;;;;12783141;22;20445;-88
2023/10/28 12:31:16;;;;;;;8.82;2.67;;;;;;;;;;12779996;23;20388;-88
2023/10/28 12:36:19;;;;;;;5.40;2.80;;;;;;;;;;12799298;23;20394;-88
2023/10/28 12:41:22;;;;;;;7.82;2.47;;;;;;;;;;12781077;23;21161;-88
2023/10/28 12:46:26;;;;;;;5.40;2.17;;;;;;;;;;12783414;23;20831;-88
2023/10/28 12:51:28;;;;;;;6.72;2.47;;;;;;;;;;12782425;23;20376;-88
2023/10/28 12:56:31;;;;;;;6.15;2.17;;;;;;;;;;12782670;23;20388;-87
2023/10/28 13:01:35;;;;;;;6.53;2.88;;;;;;;;;;12781903;22;20448;-88
2023/10/28 13:06:39;;;;;;;6.17;2.47;;;;;;;;;;12783012;22;20856;-89
2023/10/28 13:11:41;;;;;;;4.80;2.17;;;;;;;;;;12784101;23;20840;-88
2023/10/28 13:16:45;;;;;;;8.77;3.25;;;;;;;;;;12778714;23;20924;-87
2023/10/28 13:21:48;;;;;;;7.82;2.10;;;;;;;;;;12795552;23;20399;-88
2023/10/28 13:26:50;;;;;;;6.88;2.30;;;;;;;;;;12781334;22;20746;-87
2023/10/28 13:31:54;;;;;;;5.50;2.33;;;;;;;;;;12777983;23;20383;-88
2023/10/28 13:36:57;;;;;;;5.97;2.20;;;;;;;;;;12777370;23;20393;-87
2023/10/28 13:42:00;;;;;;;6.57;2.38;;;;;;;;;;12788226;23;20429;-82
2023/10/28 13:47:04;;;;;;;4.67;2.27;;;;;;;;;;12763998;23;20409;-81
2023/10/28 13:52:06;;;;;;;7.80;2.45;;;;;;;;;;12768900;23;20851;-82
2023/10/28 13:57:09;;;;;;;5.60;2.00;;;;;;;;;;12772532;22;20832;-83
2023/10/28 14:02:13;;;;;;;6.32;2.10;;;;;;;;;;12766014;23;20445;-81
2023/10/28 14:07:15;;;;;;;3.97;2.03;;;;;;;;;;12766227;23;20446;-82
2023/10/28 14:12:18;;;;;;;5.90;2.08;;;;;;;;;;12765975;23;20387;-82
2023/10/28 14:17:21;;;;;;;5.32;2.08;;;;;;;;;;12765833;23;20384;-82
2023/10/28 14:22:24;;;;;;;4.10;2.42;;;;;;;;;;12767083;22;20855;-82
2023/10/28 14:27:28;;;;;;;6.63;2.35;;;;;;;;;;12767261;23;20425;-82
2023/10/28 14:32:35;;;;;;;4.90;2.65;;;;;;;;;;12769795;23;20376;-90
2023/10/28 14:37:37;;;;;;;4.50;1.93;;;;;;;;;;12770575;22;20368;-78
2023/10/28 14:42:43;;;;;;;6.35;1.88;;;;;;;;;;12777281;23;20914;-88
2023/10/28 14:47:47;;;;;;;6.93;2.00;;;;;;;;;;12775721;23;20383;-88
2023/10/28 14:52:49;;;;;;;7.50;2.15;;;;;;;;;;12773159;23;20379;-88
2023/10/28 14:57:52;;;;;;;3.88;2.17;;;;;;;;;;12778027;22;20410;-89
2023/10/28 15:02:55;;;;;;;5.95;2.25;;;;;;;;;;12770577;23;20397;-88
2023/10/28 15:07:58;;;;;;;4.80;1.88;;;;;;;;;;12773119;23;20388;-88
2023/10/28 15:13:01;;;;;;;6.90;2.10;;;;;;;;;;12778083;23;20920;-89
2023/10/28 15:18:05;;;;;;;7.97;2.00;;;;;;;;;;12782668;23;20406;-88
2023/10/28 15:23:09;;;;;;;4.72;1.85;;;;;;;;;;12782690;23;20383;-89
2023/10/28 15:28:11;;;;;;;4.30;1.73;;;;;;;;;;12803577;23;20405;-89
2023/10/28 15:33:15;;;;;;;3.67;1.50;;;;;;;;;;12782780;23;20425;-87
2023/10/28 15:38:17;;;;;;;5.70;1.67;;;;;;;;;;12784692;22;20383;-89
2023/10/28 15:43:20;;;;;;;3.15;1.52;;;;;;;;;;12786599;23;20380;-89
2023/10/28 15:48:24;;;;;;;4.07;1.83;;;;;;;;;;12787623;23;20410;-89
2023/10/28 15:53:26;;;;;;;6.47;2.40;;;;;;;;;;12784776;23;20437;-88
2023/10/28 15:58:30;;;;;;;5.80;2.30;;;;;;;;;;12785568;22;20475;-89
2023/10/28 16:03:34;;;;;;;6.38;2.80;;;;;;;;;;12783962;23;20379;-89
2023/10/28 16:08:37;;;;;;;7.73;2.30;;;;;;;;;;12782530;22;20384;-89
2023/10/28 16:13:40;;;;;;;7.87;2.60;;;;;;;;;;12779698;22;20384;-88
2023/10/28 16:18:45;;;;;;;5.75;2.28;;;;;;;;;;12797920;23;20372;-90
2023/10/28 16:23:49;;;;;;;6.32;2.10;;;;;;;;;;12778148;23;20445;-90
2023/10/28 16:28:52;;;;;;;5.63;2.30;;;;;;;;;;12774808;22;20413;-89
2023/10/28 16:33:55;;;;;;;7.40;2.33;;;;;;;;;;12780209;23;20364;-90
2023/10/28 16:38:58;;;;;;;9.15;2.65;;;;;;;;;;12781614;23;20388;-90
2023/10/28 16:44:05;;;;;;;6.82;2.45;;;;;;;;;;12782431;23;20693;-89
2023/10/28 16:49:11;;;;;;;4.32;2.35;;;;;;;;;;12778897;23;20448;-89
2023/10/28 16:54:14;;;;;;;6.05;2.38;;;;;;;;;;12791221;23;20376;-89
2023/10/28 16:59:16;;;;;;;12.52;3.10;;;;;;;;;;12780422;22;20392;-89
2023/10/28 17:04:20;;;;;;;7.65;2.70;;;;;;;;;;12779848;23;20700;-90
2023/10/28 17:09:24;;;;;;;10.10;4.33;;;;;;;;;;12782238;22;20478;-88
2023/10/28 17:14:26;;;;;;;9.53;4.87;;;;;;;;;;12779280;23;20475;-89
2023/10/28 17:19:30;;;;;;;8.88;4.40;;;;;;;;;;12775995;23;20383;-87
2023/10/28 17:24:32;;;;;;;9.95;4.40;;;;;;;;;;12778013;23;20417;-89
2023/10/28 17:29:35;;;;;;;9.10;3.85;;;;;;;;;;12781615;22;20433;-89
2023/10/28 17:34:38;;;;;;;9.55;5.53;;;;;;;;;;12778799;22;20375;-90
2023/10/28 17:39:41;;;;;;;29.60;26.42;;;;;;;;;;12777733;22;20391;-91
2023/10/28 17:44:43;;;;;;;9.03;7.00;;;;;;;;;;12779937;23;20441;-90
2023/10/28 17:49:47;;;;;;;16.88;10.65;;;;;;;;;;12778589;23;20421;-91
2023/10/28 17:54:49;;;;;;;15.33;9.73;;;;;;;;;;12776987;22;20484;-91
2023/10/28 17:59:51;;;;;;;12.88;7.57;;;;;;;;;;12784439;23;20391;-90
2023/10/28 18:04:55;;;;;;;60.80;22.95;;;;;;;;;;12777577;22;20433;-92
2023/10/28 18:09:57;;;;;;;16.45;9.38;;;;;;;;;;12778996;22;20383;-91
2023/10/28 18:15:00;;;;;;;10.40;5.97;;;;;;;;;;12779709;23;20851;-85
2023/10/28 18:20:05;;;;;;;11.05;6.40;;;;;;;;;;12797855;23;20380;-92
2023/10/28 18:25:08;;;;;;;9.90;5.82;;;;;;;;;;12779986;23;20444;-90
2023/10/28 18:30:11;;;;;;;10.05;5.43;;;;;;;;;;12780689;22;20815;-90
2023/10/28 18:35:15;;;;;;;16.33;8.03;;;;;;;;;;12779248;23;20368;-91
2023/10/28 18:40:17;;;;;;;21.63;6.60;;;;;;;;;;12782148;23;20425;-91
2023/10/28 18:45:20;;;;;;;12.43;7.40;;;;;;;;;;12782577;22;20383;-92
2023/10/28 18:50:23;;;;;;;18.37;9.77;;;;;;;;;;12776550;23;21142;-91
2023/10/28 18:55:26;;;;;;;29.27;15.37;;;;;;;;;;12780316;22;20384;-90
2023/10/28 19:00:28;;;;;;;18.95;9.35;;;;;;;;;;12777497;23;20392;-90
2023/10/28 19:05:33;;;;;;;20.33;12.18;;;;;;;;;;12783724;23;20379;-90
2023/10/28 19:10:36;;;;;;;22.07;12.90;;;;;;;;;;12778789;23;20380;-91
2023/10/28 19:15:38;;;;;;;20.80;10.90;;;;;;;;;;12783104;23;20367;-91
2023/10/28 19:20:42;;;;;;;22.88;11.10;;;;;;;;;;12778597;23;20376;-89
2023/10/28 19:25:44;;;;;;;19.77;10.70;;;;;;;;;;12780621;23;20416;-90
2023/10/28 19:30:47;;;;;;;18.55;9.93;;;;;;;;;;12782107;22;20380;-91
2023/10/28 19:35:50;;;;;;;513.40;226.63;;;;;;;;;;12779681;23;20368;-90
2023/10/28 19:40:53;;;;;;;75.65;34.33;;;;;;;;;;12774029;22;20392;-91
2023/10/28 19:45:55;;;;;;;20.25;12.00;;;;;;;;;;12778359;23;20408;-91
2023/10/28 19:51:00;;;;;;;40.15;19.42;;;;;;;;;;12777542;23;20441;-91
2023/10/28 19:56:03;;;;;;;20.97;12.63;;;;;;;;;;12778330;23;21213;-91
2023/10/28 20:01:06;;;;;;;16.38;11.25;;;;;;;;;;12778740;23;20944;-90
2023/10/28 20:06:10;;;;;;;19.10;10.40;;;;;;;;;;12790079;23;20851;-87
2023/10/28 20:11:12;;;;;;;15.02;10.45;;;;;;;;;;12778321;22;20437;-90
2023/10/28 20:16:14;;;;;;;16.55;10.32;;;;;;;;;;12780739;23;20708;-90
2023/10/28 20:21:18;;;;;;;17.77;11.37;;;;;;;;;;12779367;23;20372;-90
2023/10/28 20:26:21;;;;;;;19.73;10.43;;;;;;;;;;12777426;22;20855;-89
2023/10/28 20:31:23;;;;;;;37.92;17.50;;;;;;;;;;12778131;23;20382;-89
2023/10/28 20:36:27;;;;;;;17.47;10.57;;;;;;;;;;12781071;23;20372;-90
2023/10/28 20:41:29;;;;;;;21.70;12.02;;;;;;;;;;12781831;23;20441;-90
2023/10/28 20:46:32;;;;;;;18.87;12.83;;;;;;;;;;12781217;23;20403;-90
2023/10/28 20:51:36;;;;;;;21.27;13.70;;;;;;;;;;12784464;23;20432;-90
2023/10/28 20:56:38;;;;;;;22.50;13.82;;;;;;;;;;12781530;23;20843;-90
2023/10/28 21:01:40;;;;;;;23.93;14.50;;;;;;;;;;12781680;22;20492;-90
2023/10/28 21:06:44;;;;;;;27.98;14.95;;;;;;;;;;12782170;22;20380;-90
2023/10/28 21:11:47;;;;;;;22.87;13.77;;;;;;;;;;12782018;22;20383;-89
2023/10/28 21:16:49;;;;;;;20.30;13.82;;;;;;;;;;12780117;23;20384;-90
2023/10/28 21:21:57;;;;;;;19.83;13.30;;;;;;;;;;12793927;23;20383;-90
2023/10/28 21:27:00;;;;;;;22.40;14.10;;;;;;;;;;12780414;23;21135;-90
2023/10/28 21:32:03;;;;;;;22.83;13.55;;;;;;;;;;12778578;23;20380;-91
2023/10/28 21:37:07;;;;;;;21.70;13.38;;;;;;;;;;12778457;23;20459;-92
2023/10/28 21:42:10;;;;;;;21.33;13.47;;;;;;;;;;12779586;23;20476;-92
2023/10/28 21:47:12;;;;;;;20.33;13.67;;;;;;;;;;12782780;23;20848;-92
2023/10/28 21:52:16;;;;;;;18.83;12.40;;;;;;;;;;12779411;23;20506;-92
2023/10/28 21:57:18;;;;;;;18.35;12.35;;;;;;;;;;12778276;23;20848;-91
2023/10/28 22:02:21;;;;;;;22.17;13.37;;;;;;;;;;12779900;23;20418;-91
2023/10/28 22:07:25;;;;;;;25.75;16.58;;;;;;;;;;12786983;23;20406;-91
2023/10/28 22:12:27;;;;;;;21.67;14.15;;;;;;;;;;12782423;23;20789;-92
2023/10/28 22:17:30;;;;;;;20.75;13.52;;;;;;;;;;12795849;23;20440;-92
2023/10/28 22:22:33;;;;;;;18.42;13.75;;;;;;;;;;12783678;22;20939;-91
2023/10/28 22:27:37;;;;;;;19.42;13.40;;;;;;;;;;12780690;23;20380;-91
2023/10/28 22:32:39;;;;;;;17.23;11.90;;;;;;;;;;12779841;23;20371;-91
2023/10/28 22:37:44;;;;;;;14.95;11.07;;;;;;;;;;12805529;23;20395;-91
2023/10/28 22:42:46;;;;;;;16.30;11.07;;;;;;;;;;12787305;23;20384;-91
2023/10/28 22:47:48;;;;;;;17.17;11.00;;;;;;;;;;12785105;23;20901;-92
2023/10/28 22:52:53;;;;;;;16.97;11.07;;;;;;;;;;12784148;23;20375;-91
2023/10/28 22:57:56;;;;;;;15.77;10.90;;;;;;;;;;12787124;22;20364;-92
2023/10/28 23:02:59;;;;;;;14.50;10.57;;;;;;;;;;12789076;22;20944;-91
2023/10/28 23:08:02;;;;;;;16.08;10.55;;;;;;;;;;12789579;23;20430;-91
2023/10/28 23:13:06;;;;;;;14.30;10.25;;;;;;;;;;12789362;23;20376;-91
2023/10/28 23:18:08;;;;;;;12.70;9.50;;;;;;;;;;12789410;23;20368;-90
2023/10/28 23:23:12;;;;;;;13.07;9.82;;;;;;;;;;12790798;23;20391;-91
2023/10/28 23:28:14;;;;;;;15.10;9.27;;;;;;;;;;12790494;23;20380;-90
2023/10/28 23:33:16;;;;;;;15.25;10.30;;;;;;;;;;12788681;23;20376;-91
2023/10/28 23:38:20;;;;;;;12.73;9.68;;;;;;;;;;12789875;23;20368;-91
2023/10/28 23:43:25;;;;;;;14.23;9.80;;;;;;;;;;12809860;23;20444;-91
2023/10/28 23:48:28;;;;;;;14.18;9.82;;;;;;;;;;12788133;23;20432;-91
2023/10/28 23:53:32;;;;;;;15.93;9.55;;;;;;;;;;12790480;22;20393;-91
2023/10/28 23:58:34;;;;;;;13.52;9.55;;;;;;;;;;12789474;23;20848;-92
